Time;durP1;ratioP1;P1;durP2;ratioP2;P2;SDS_P1;SDS_P2;PMS_P1;PMS_P2;Temp;Humidity;BMP_temperature;BMP_pressure;BME280_temperature;BME280_humidity;BME280_pressure;Samples;Min_cycle;Max_cycle;Signal;HPM_P1;HPM_P2
2022/10/30 00:01:36;;;;;;;31.40;22.58;;;14.70;99.90;;;;;;5026444;28;20029;-76
2022/10/30 00:04:03;;;;;;;29.15;23.08;;;14.60;99.90;;;;;;5028374;28;20124;-76
2022/10/30 00:06:30;;;;;;;29.00;23.73;;;14.50;99.90;;;;;;5047650;28;20033;-76
2022/10/30 00:08:56;;;;;;;30.67;23.20;;;14.40;99.90;;;;;;5056700;28;20069;-75
2022/10/30 00:11:23;;;;;;;28.15;22.30;;;14.40;99.90;;;;;;5022427;28;20107;-77
2022/10/30 00:13:50;;;;;;;26.88;23.00;;;14.20;99.90;;;;;;5054063;28;20047;-77
2022/10/30 00:16:17;;;;;;;32.65;22.73;;;14.10;99.90;;;;;;5057208;28;20052;-76
2022/10/30 00:18:43;;;;;;;27.45;21.02;;;13.90;99.90;;;;;;5034317;28;20138;-76
2022/10/30 00:21:13;;;;;;;27.90;21.77;;;13.80;99.90;;;;;;5032864;28;20051;-76
2022/10/30 00:23:50;;;;;;;21.98;19.35;;;13.90;99.90;;;;;;5043136;28;20041;-77
2022/10/30 00:26:19;;;;;;;29.30;20.40;;;14.00;99.90;;;;;;5011596;28;20494;-76
2022/10/30 00:28:50;;;;;;;33.90;19.55;;;14.00;99.90;;;;;;5025342;28;20084;-76
2022/10/30 00:31:17;;;;;;;23.52;19.65;;;14.00;99.90;;;;;;5024580;28;20356;-75
2022/10/30 00:33:52;;;;;;;25.75;20.00;;;13.90;99.90;;;;;;5027569;28;20049;-76
2022/10/30 00:36:20;;;;;;;22.80;18.75;;;13.90;99.90;;;;;;5025889;28;20048;-76
2022/10/30 00:38:46;;;;;;;29.08;20.52;;;14.00;99.90;;;;;;5028087;28;20059;-76
2022/10/30 00:41:19;;;;;;;23.30;18.75;;;13.80;99.90;;;;;;5029894;28;20498;-76
2022/10/30 00:43:46;;;;;;;32.35;18.63;;;13.90;99.90;;;;;;5004900;28;20144;-76
2022/10/30 00:46:22;;;;;;;27.30;19.85;;;13.90;99.90;;;;;;5026121;28;20257;-76
2022/10/30 00:48:58;;;;;;;27.30;19.08;;;14.00;99.90;;;;;;5028292;28;20041;-76
2022/10/30 00:51:27;;;;;;;25.50;19.08;;;14.10;99.90;;;;;;5020948;28;20049;-75
2022/10/30 00:53:58;;;;;;;26.70;20.25;;;14.10;99.90;;;;;;5029990;28;20055;-76
2022/10/30 00:56:25;;;;;;;30.67;21.05;;;14.10;99.90;;;;;;5025293;28;20409;-76
2022/10/30 00:59:04;;;;;;;28.00;22.15;;;14.20;99.90;;;;;;5028260;28;20489;-75
2022/10/30 01:01:35;;;;;;;23.13;20.88;;;14.20;99.90;;;;;;5040029;28;20120;-75
2022/10/30 01:04:05;;;;;;;24.80;21.90;;;14.10;99.90;;;;;;5041977;28;20472;-77
2022/10/30 01:06:37;;;;;;;25.58;22.25;;;14.00;99.90;;;;;;5027505;28;20076;-76
2022/10/30 01:09:14;;;;;;;27.60;24.67;;;14.20;99.90;;;;;;5023641;28;20073;-79
2022/10/30 01:11:41;;;;;;;25.15;22.63;;;14.30;99.90;;;;;;5027258;28;20040;-75
2022/10/30 01:14:10;;;;;;;25.52;22.52;;;14.30;99.90;;;;;;5038981;28;20034;-77
2022/10/30 01:16:49;;;;;;;27.70;23.13;;;14.40;99.90;;;;;;5055736;28;20091;-76
2022/10/30 01:19:50;;;;;;;28.65;22.05;;;14.30;99.90;;;;;;5038655;28;20437;-75
2022/10/30 01:22:34;;;;;;;26.67;23.92;;;14.10;99.90;;;;;;5037415;28;20037;-76
2022/10/30 01:25:00;;;;;;;33.38;22.85;;;14.00;99.90;;;;;;5023984;28;20545;-77
2022/10/30 01:27:49;;;;;;;26.40;21.23;;;14.10;99.90;;;;;;5026938;28;20436;-75
2022/10/30 01:30:50;;;;;;;30.33;21.92;;;14.10;99.90;;;;;;5023615;28;20442;-76
2022/10/30 01:33:54;;;;;;;30.15;21.70;;;14.00;99.90;;;;;;5038573;28;20103;-77
2022/10/30 01:36:45;;;;;;;25.83;21.70;;;13.90;99.90;;;;;;5034007;28;20044;-78
2022/10/30 01:39:22;;;;;;;29.25;21.45;;;13.80;99.90;;;;;;5042710;28;20049;-76
2022/10/30 01:41:49;;;;;;;25.35;21.40;;;13.80;99.90;;;;;;5021936;28;20439;-78
2022/10/30 01:44:30;;;;;;;23.08;20.15;;;13.60;99.90;;;;;;5025809;28;20140;-76
2022/10/30 01:47:32;;;;;;;22.67;20.00;;;13.60;99.90;;;;;;5007857;28;20120;-75
2022/10/30 01:50:15;;;;;;;25.88;19.90;;;13.60;99.90;;;;;;5037128;28;20106;-76
2022/10/30 01:52:57;;;;;;;28.13;19.08;;;13.50;99.90;;;;;;5022107;28;20045;-78
2022/10/30 01:55:57;;;;;;;27.98;20.25;;;13.50;99.90;;;;;;5019215;28;20494;-76
2022/10/30 01:58:27;;;;;;;29.08;19.70;;;13.70;99.90;;;;;;4976818;28;20168;-77
2022/10/30 02:00:57;;;;;;;26.80;19.17;;;13.50;99.90;;;;;;5001271;28;20037;-75
2022/10/30 02:03:26;;;;;;;30.20;20.40;;;13.40;99.90;;;;;;5023021;28;20041;-76
2022/10/30 02:05:53;;;;;;;28.48;18.75;;;13.40;99.90;;;;;;5007315;28;20506;-76
2022/10/30 02:08:22;;;;;;;24.00;18.40;;;13.40;99.90;;;;;;5008932;28;20314;-76
2022/10/30 02:10:51;;;;;;;21.92;18.27;;;13.20;99.90;;;;;;5004903;28;20190;-74
2022/10/30 02:13:29;;;;;;;28.27;17.85;;;13.10;99.90;;;;;;5020989;28;20063;-76
2022/10/30 02:15:58;;;;;;;36.10;16.77;;;13.10;99.90;;;;;;5003165;28;20506;-76
2022/10/30 02:18:25;;;;;;;30.42;17.65;;;13.10;99.90;;;;;;5039395;28;20064;-76
2022/10/30 02:20:52;;;;;;;26.65;19.40;;;13.10;99.90;;;;;;5024431;28;20601;-76
2022/10/30 02:23:21;;;;;;;26.25;19.17;;;13.10;99.90;;;;;;5029739;28;20046;-76
2022/10/30 02:25:49;;;;;;;21.92;18.58;;;13.00;99.90;;;;;;5005611;28;20073;-76
2022/10/30 02:28:15;;;;;;;30.13;19.83;;;12.90;99.90;;;;;;5016258;28;20804;-76
2022/10/30 02:30:45;;;;;;;22.77;19.33;;;12.80;99.90;;;;;;5025416;28;20049;-77
2022/10/30 02:33:12;;;;;;;21.55;19.35;;;12.80;99.90;;;;;;5013231;28;20055;-78
2022/10/30 02:35:42;;;;;;;22.63;18.83;;;12.90;99.90;;;;;;5041015;28;20069;-76
2022/10/30 02:38:09;;;;;;;26.63;18.65;;;12.90;99.90;;;;;;5033324;28;20151;-77
2022/10/30 02:40:36;;;;;;;20.75;17.67;;;12.80;99.90;;;;;;5025906;28;20108;-77
2022/10/30 02:43:06;;;;;;;22.98;17.02;;;12.90;99.90;;;;;;5024218;28;20455;-76
2022/10/30 02:45:32;;;;;;;26.33;17.65;;;13.00;99.90;;;;;;5011868;28;20049;-75
2022/10/30 02:47:59;;;;;;;25.45;16.77;;;12.90;99.90;;;;;;5024204;28;20496;-76
2022/10/30 02:50:27;;;;;;;27.52;18.27;;;12.70;99.90;;;;;;5032287;28;20510;-77
2022/10/30 02:52:54;;;;;;;24.60;18.27;;;12.70;99.90;;;;;;5025108;28;20037;-77
2022/10/30 02:55:21;;;;;;;29.25;18.67;;;12.70;99.90;;;;;;5025417;28;20169;-77
2022/10/30 02:57:50;;;;;;;20.08;17.88;;;12.70;99.90;;;;;;5025668;28;20128;-77
2022/10/30 03:00:17;;;;;;;24.17;18.17;;;12.70;99.90;;;;;;5016813;28;20055;-76
2022/10/30 03:02:44;;;;;;;30.88;19.10;;;12.70;99.90;;;;;;5024651;28;20053;-77
2022/10/30 03:05:10;;;;;;;29.33;18.23;;;12.60;99.90;;;;;;5024251;28;20502;-78
2022/10/30 03:07:37;;;;;;;29.92;18.10;;;12.40;99.90;;;;;;5020297;28;20135;-80
2022/10/30 03:10:04;;;;;;;27.15;18.73;;;12.40;99.90;;;;;;5028134;28;20077;-79
2022/10/30 03:12:31;;;;;;;35.72;19.40;;;12.30;99.90;;;;;;5012250;28;20078;-78
2022/10/30 03:14:58;;;;;;;24.10;18.65;;;12.40;99.90;;;;;;5050335;28;20441;-78
2022/10/30 03:17:25;;;;;;;28.90;18.55;;;12.40;99.90;;;;;;5030906;28;20052;-77
2022/10/30 03:19:52;;;;;;;27.23;17.38;;;12.30;99.90;;;;;;5026724;28;20037;-76
2022/10/30 03:22:19;;;;;;;30.02;18.77;;;12.20;99.90;;;;;;5027409;28;20056;-76
2022/10/30 03:24:46;;;;;;;24.00;17.35;;;12.10;99.90;;;;;;5036432;28;20529;-76
2022/10/30 03:27:13;;;;;;;27.75;18.10;;;12.20;99.90;;;;;;5021028;28;20238;-77
2022/10/30 03:29:39;;;;;;;24.80;16.67;;;12.20;99.90;;;;;;5038675;28;20071;-76
2022/10/30 03:32:10;;;;;;;27.02;17.15;;;12.20;99.90;;;;;;5022907;28;20040;-74
2022/10/30 03:34:46;;;;;;;25.77;17.17;;;12.10;99.90;;;;;;5012778;28;20044;-77
2022/10/30 03:37:13;;;;;;;25.02;17.30;;;11.90;99.90;;;;;;5033178;28;20092;-76
2022/10/30 03:39:39;;;;;;;23.33;16.95;;;11.80;99.90;;;;;;5026517;28;20049;-77
2022/10/30 03:42:06;;;;;;;25.60;18.58;;;11.70;99.90;;;;;;5010991;28;20329;-77
2022/10/30 03:44:33;;;;;;;33.17;18.88;;;11.70;99.90;;;;;;5025147;28;20056;-76
2022/10/30 03:47:01;;;;;;;27.75;19.30;;;11.70;99.90;;;;;;5026455;28;20467;-77
2022/10/30 03:49:32;;;;;;;22.38;19.17;;;11.80;99.90;;;;;;5006193;28;20247;-75
2022/10/30 03:52:02;;;;;;;31.95;18.75;;;11.90;99.90;;;;;;5027207;28;20049;-76
2022/10/30 03:54:29;;;;;;;29.08;17.20;;;11.80;99.90;;;;;;5037391;28;20112;-77
2022/10/30 03:56:56;;;;;;;28.65;16.63;;;11.70;99.90;;;;;;5033070;28;20063;-77
2022/10/30 03:59:26;;;;;;;35.53;17.95;;;11.80;99.90;;;;;;5028726;28;20052;-78
2022/10/30 04:02:11;;;;;;;;;;;11.70;99.90;;;;;;5029030;28;20056;-79
2022/10/30 04:04:39;;;;;;;26.02;16.58;;;11.50;99.90;;;;;;5043957;28;19942;-79
2022/10/30 04:07:05;;;;;;;28.58;16.75;;;11.30;99.90;;;;;;5022903;28;20114;-78
2022/10/30 04:09:32;;;;;;;38.65;18.20;;;11.20;99.90;;;;;;5012893;28;20049;-79
2022/10/30 04:11:59;;;;;;;29.35;16.38;;;11.20;99.90;;;;;;5025764;28;20587;-77
2022/10/30 04:14:25;;;;;;;35.58;18.13;;;11.10;99.90;;;;;;5028162;28;20494;-75
2022/10/30 04:16:52;;;;;;;29.85;17.42;;;11.20;99.90;;;;;;5022032;28;20080;-79
2022/10/30 04:19:19;;;;;;;28.45;18.30;;;11.20;99.90;;;;;;5026409;28;20061;-78
2022/10/30 04:21:46;;;;;;;26.35;16.80;;;11.20;99.90;;;;;;5029518;28;20521;-77
2022/10/30 04:24:15;;;;;;;32.33;18.00;;;11.10;99.90;;;;;;5031001;28;20053;-76
2022/10/30 04:26:44;;;;;;;27.00;18.15;;;11.00;99.90;;;;;;5007970;28;20823;-77
2022/10/30 04:29:11;;;;;;;28.00;16.23;;;11.00;99.90;;;;;;5027963;28;20140;-78
2022/10/30 04:31:37;;;;;;;31.15;18.88;;;11.00;99.90;;;;;;5009360;28;20049;-79
2022/10/30 04:34:04;;;;;;;38.15;19.75;;;11.00;99.90;;;;;;5038624;28;20084;-78
2022/10/30 04:36:34;;;;;;;27.80;18.25;;;10.90;99.90;;;;;;5012274;28;20147;-77
2022/10/30 04:39:01;;;;;;;28.98;17.73;;;10.90;99.90;;;;;;5027580;28;20148;-78
2022/10/30 04:41:29;;;;;;;29.92;18.30;;;10.80;99.90;;;;;;5038647;28;20441;-78
2022/10/30 04:44:02;;;;;;;29.10;18.00;;;10.70;99.90;;;;;;5029334;28;20080;-77
2022/10/30 04:46:31;;;;;;;29.73;17.88;;;10.60;99.90;;;;;;5029187;28;20088;-75
2022/10/30 04:49:05;;;;;;;28.35;16.23;;;10.70;99.90;;;;;;5028311;28;20047;-77
2022/10/30 04:51:32;;;;;;;24.75;15.73;;;10.80;99.90;;;;;;5026441;28;20140;-77
2022/10/30 04:53:58;;;;;;;31.25;15.65;;;10.70;99.90;;;;;;5055260;28;21172;-77
2022/10/30 04:56:28;;;;;;;25.52;15.63;;;10.70;99.90;;;;;;5025315;28;20045;-79
2022/10/30 04:58:55;;;;;;;33.17;15.27;;;10.60;99.90;;;;;;5043883;28;20083;-76
2022/10/30 05:01:21;;;;;;;32.33;15.73;;;10.60;99.90;;;;;;5025538;28;20061;-78
2022/10/30 05:03:49;;;;;;;21.67;14.05;;;10.50;99.90;;;;;;5027662;28;20037;-78
2022/10/30 05:06:23;;;;;;;25.10;14.82;;;10.50;99.90;;;;;;5029161;28;20143;-79
2022/10/30 05:08:50;;;;;;;27.58;15.52;;;10.60;99.90;;;;;;5026291;28;20041;-76
2022/10/30 05:11:37;;;;;;;27.90;16.20;;;10.60;99.90;;;;;;5040350;28;20037;-79
2022/10/30 05:14:04;;;;;;;26.83;15.00;;;10.80;99.90;;;;;;5004849;28;20051;-78
2022/10/30 05:16:30;;;;;;;30.80;15.68;;;10.70;99.90;;;;;;5026592;28;20068;-76
2022/10/30 05:18:59;;;;;;;38.47;16.58;;;10.70;99.90;;;;;;5034647;28;20395;-77
2022/10/30 05:21:27;;;;;;;31.63;16.45;;;10.70;99.90;;;;;;5026040;28;20457;-76
2022/10/30 05:23:54;;;;;;;38.33;17.17;;;10.70;99.90;;;;;;5055220;28;20052;-77
2022/10/30 05:26:21;;;;;;;30.48;16.92;;;10.60;99.90;;;;;;5021188;28;20136;-77
2022/10/30 05:28:50;;;;;;;21.33;15.98;;;10.50;99.90;;;;;;5020514;28;20045;-77
2022/10/30 05:31:16;;;;;;;27.40;17.60;;;10.40;99.90;;;;;;5021046;28;20041;-76
2022/10/30 05:33:58;;;;;;;35.63;17.38;;;10.40;99.90;;;;;;5039448;28;21846;-78
2022/10/30 05:36:30;;;;;;;30.00;18.30;;;10.30;99.90;;;;;;5027125;28;20104;-77
2022/10/30 05:38:57;;;;;;;30.00;19.23;;;10.30;99.90;;;;;;5008920;28;20110;-77
2022/10/30 05:41:35;;;;;;;22.00;16.98;;;10.20;99.90;;;;;;5023651;28;20279;-78
2022/10/30 05:44:03;;;;;;;27.30;17.58;;;10.30;99.90;;;;;;5021120;28;20059;-79
2022/10/30 05:46:31;;;;;;;27.80;17.20;;;10.10;99.90;;;;;;5028280;28;20079;-76
2022/10/30 05:49:08;;;;;;;33.25;19.52;;;10.00;99.90;;;;;;5023182;28;20049;-79
2022/10/30 05:51:35;;;;;;;28.42;19.85;;;10.00;99.90;;;;;;5022652;28;20049;-77
2022/10/30 05:54:08;;;;;;;26.40;19.30;;;10.10;99.90;;;;;;5031102;28;20135;-76
2022/10/30 05:56:41;;;;;;;31.27;18.08;;;10.20;99.90;;;;;;5022172;28;20129;-77
2022/10/30 05:59:07;;;;;;;36.15;17.38;;;10.20;99.90;;;;;;5024983;28;20056;-77
2022/10/30 06:01:34;;;;;;;30.98;17.63;;;10.30;99.90;;;;;;5037273;28;20068;-75
2022/10/30 06:04:05;;;;;;;37.03;18.15;;;10.20;99.90;;;;;;5011266;28;20080;-76
2022/10/30 06:06:31;;;;;;;34.10;17.73;;;10.10;99.90;;;;;;5024080;28;20045;-75
2022/10/30 06:08:58;;;;;;;37.03;18.95;;;9.90;99.90;;;;;;5024953;28;21343;-76
2022/10/30 06:11:43;;;;;;;40.10;18.10;;;10.00;99.90;;;;;;5033318;28;20589;-76
2022/10/30 06:14:11;;;;;;;24.17;18.20;;;10.10;99.90;;;;;;5024583;28;20503;-75
2022/10/30 06:16:45;;;;;;;32.05;16.17;;;10.00;99.90;;;;;;5051078;28;20037;-76
2022/10/30 06:19:20;;;;;;;;;;;10.10;99.90;;;;;;5026849;28;20624;-77
2022/10/30 06:21:49;;;;;;;29.60;16.02;;;10.20;99.90;;;;;;5041088;28;19996;-76
2022/10/30 06:24:54;;;;;;;31.77;16.45;;;10.20;99.90;;;;;;4997377;28;20050;-76
2022/10/30 06:27:27;;;;;;;28.70;15.45;;;10.30;99.90;;;;;;4983503;28;20458;-77
2022/10/30 06:29:54;;;;;;;32.85;16.70;;;10.20;99.90;;;;;;5021029;28;20040;-77
2022/10/30 06:32:21;;;;;;;27.15;16.52;;;10.10;99.90;;;;;;5021930;28;20037;-77
2022/10/30 06:34:48;;;;;;;37.20;18.95;;;9.90;99.90;;;;;;5009206;28;20041;-79
2022/10/30 06:37:16;;;;;;;31.23;18.25;;;9.90;99.90;;;;;;5041837;28;20056;-76
2022/10/30 06:39:43;;;;;;;34.38;17.80;;;9.80;99.90;;;;;;5032329;28;20609;-77
2022/10/30 06:42:47;;;;;;;37.35;18.75;;;9.80;99.90;;;;;;4982834;28;20051;-76
2022/10/30 06:45:33;;;;;;;36.55;23.42;;;9.80;99.90;;;;;;5028588;28;20596;-78
2022/10/30 06:48:00;;;;;;;34.38;19.73;;;9.80;99.90;;;;;;5011117;28;20040;-77
2022/10/30 06:50:32;;;;;;;29.98;19.40;;;9.70;99.90;;;;;;5028224;28;20033;-78
2022/10/30 06:52:59;;;;;;;35.30;21.33;;;9.70;99.90;;;;;;5013374;28;20549;-77
2022/10/30 06:55:26;;;;;;;33.75;21.27;;;9.70;99.90;;;;;;5025903;28;20041;-77
2022/10/30 06:58:28;;;;;;;28.13;19.23;;;9.80;99.90;;;;;;5019850;28;20107;-76
2022/10/30 07:01:05;;;;;;;31.20;19.38;;;10.00;99.90;;;;;;5015560;28;20069;-77
2022/10/30 07:03:53;;;;;;;26.13;17.67;;;10.10;99.90;;;;;;5041166;28;20049;-76
2022/10/30 07:06:21;;;;;;;34.67;19.73;;;10.10;99.90;;;;;;5025765;28;20065;-77
2022/10/30 07:08:48;;;;;;;37.08;19.65;;;10.20;99.90;;;;;;5040969;28;20053;-76
2022/10/30 07:11:15;;;;;;;32.05;19.70;;;10.10;99.90;;;;;;5028630;28;20047;-76
2022/10/30 07:14:00;;;;;;;34.47;19.08;;;10.00;99.90;;;;;;5039583;28;20067;-77
2022/10/30 07:16:36;;;;;;;41.35;19.50;;;10.00;99.90;;;;;;5019228;28;20502;-77
2022/10/30 07:19:05;;;;;;;37.67;19.27;;;10.00;99.90;;;;;;5002082;28;20132;-77
2022/10/30 07:21:33;;;;;;;28.80;19.13;;;10.10;99.90;;;;;;5028997;28;20053;-79
2022/10/30 07:24:04;;;;;;;30.85;19.42;;;10.10;99.90;;;;;;5031471;28;20048;-75
2022/10/30 07:26:42;;;;;;;26.48;18.92;;;10.10;99.90;;;;;;5027821;28;20041;-77
2022/10/30 07:29:28;;;;;;;;;;;10.20;99.90;;;;;;5029680;28;20187;-77
2022/10/30 07:32:23;;;;;;;29.63;19.33;;;10.30;99.90;;;;;;5027284;28;19944;-77
2022/10/30 07:35:22;;;;;;;29.95;19.50;;;10.50;99.90;;;;;;5011540;28;20099;-78
2022/10/30 07:38:13;;;;;;;32.25;19.15;;;10.50;99.90;;;;;;5034657;28;20572;-77
2022/10/30 07:40:52;;;;;;;25.08;18.10;;;10.70;99.90;;;;;;5025234;28;20429;-76
2022/10/30 07:43:39;;;;;;;27.40;18.77;;;10.80;99.90;;;;;;5009892;28;20042;-78
2022/10/30 07:46:41;;;;;;;29.15;19.42;;;10.80;99.90;;;;;;4990684;28;20570;-76
2022/10/30 07:49:21;;;;;;;22.60;18.40;;;10.80;99.90;;;;;;5008203;28;20049;-77
2022/10/30 07:51:52;;;;;;;24.90;18.17;;;10.90;99.90;;;;;;5026443;28;20045;-77
2022/10/30 07:54:19;;;;;;;30.20;17.05;;;11.10;99.90;;;;;;5025753;28;20079;-77
2022/10/30 07:56:46;;;;;;;27.67;19.70;;;11.30;99.90;;;;;;5043299;28;20038;-77
2022/10/30 07:59:28;;;;;;;29.85;17.65;;;11.40;99.90;;;;;;5032999;28;20044;-76
2022/10/30 08:02:15;;;;;;;21.92;16.73;;;11.60;99.90;;;;;;5024798;28;20049;-77
2022/10/30 08:05:11;;;;;;;;;;;11.80;99.90;;;;;;5020542;28;20136;-77
2022/10/30 08:07:58;;;;;;;28.73;18.20;;;11.90;99.90;;;;;;5044735;28;19929;-77
2022/10/30 08:10:25;;;;;;;30.73;17.88;;;12.20;99.90;;;;;;5044670;28;20059;-77
2022/10/30 08:12:52;;;;;;;26.17;20.58;;;12.40;99.90;;;;;;5045948;28;20049;-76
2022/10/30 08:15:19;;;;;;;24.48;21.90;;;12.50;99.90;;;;;;5031095;28;20069;-77
2022/10/30 08:17:48;;;;;;;26.95;23.48;;;12.70;99.90;;;;;;5030880;28;20049;-76
2022/10/30 08:20:18;;;;;;;30.10;25.38;;;12.90;99.90;;;;;;5048525;28;20144;-78
2022/10/30 08:22:49;;;;;;;32.35;28.05;;;13.20;99.90;;;;;;5060246;28;20137;-76
2022/10/30 08:25:23;;;;;;;33.00;29.95;;;13.60;99.90;;;;;;5014266;28;20057;-77
2022/10/30 08:27:58;;;;;;;34.28;30.92;;;14.00;99.90;;;;;;5030114;28;20081;-77
2022/10/30 08:30:30;;;;;;;33.13;30.27;;;14.30;99.90;;;;;;5025318;28;20049;-76
2022/10/30 08:32:59;;;;;;;32.42;29.83;;;14.60;99.90;;;;;;5029210;28;20045;-77
2022/10/30 08:35:55;;;;;;;36.03;32.63;;;15.00;99.90;;;;;;5027603;28;20048;-77
2022/10/30 08:38:22;;;;;;;35.63;32.85;;;15.50;99.90;;;;;;5026324;28;20095;-76
2022/10/30 08:41:10;;;;;;;34.08;31.17;;;16.00;99.90;;;;;;5030494;28;20045;-77
2022/10/30 08:43:43;;;;;;;33.28;30.58;;;16.40;99.90;;;;;;5027969;28;20044;-76
2022/10/30 08:46:10;;;;;;;33.13;29.90;;;16.80;99.90;;;;;;5029033;28;20045;-77
2022/10/30 08:48:36;;;;;;;34.03;29.05;;;17.20;99.90;;;;;;5060312;28;20761;-77
2022/10/30 08:51:05;;;;;;;31.30;27.70;;;17.70;99.90;;;;;;5032944;28;20045;-76
2022/10/30 08:53:36;;;;;;;31.05;28.42;;;18.10;99.90;;;;;;5027661;28;20041;-77
2022/10/30 08:56:08;;;;;;;30.80;27.63;;;18.40;99.90;;;;;;5013978;28;20117;-78
2022/10/30 08:58:55;;;;;;;30.60;27.65;;;18.80;99.90;;;;;;5024762;28;20045;-76
2022/10/30 09:01:21;;;;;;;31.30;28.13;;;19.10;99.90;;;;;;5033620;28;20056;-75
2022/10/30 09:04:07;;;;;;;30.73;27.63;;;19.20;99.90;;;;;;5041221;28;20052;-76
2022/10/30 09:06:52;;;;;;;28.67;25.75;;;19.40;99.90;;;;;;5027111;28;20041;-77
2022/10/30 09:09:37;;;;;;;;;;;19.70;99.90;;;;;;5047657;28;20053;-79
2022/10/30 09:12:06;;;;;;;28.60;25.60;;;20.00;99.90;;;;;;5037833;28;19921;-78
2022/10/30 09:14:42;;;;;;;27.88;25.33;;;20.30;99.90;;;;;;5025094;28;20036;-80
2022/10/30 09:17:10;;;;;;;28.52;25.75;;;20.50;99.90;;;;;;5045182;28;20033;-77
2022/10/30 09:19:41;;;;;;;27.33;25.05;;;20.80;99.90;;;;;;5053087;28;20410;-79
2022/10/30 09:22:09;;;;;;;29.33;25.73;;;20.90;99.90;;;;;;5037457;28;20116;-76
2022/10/30 09:24:39;;;;;;;27.75;25.17;;;21.10;99.90;;;;;;5041220;28;20110;-77
2022/10/30 09:27:38;;;;;;;32.83;27.70;;;21.40;99.90;;;;;;5020343;28;20101;-77
2022/10/30 09:30:07;;;;;;;28.67;25.70;;;21.50;99.90;;;;;;5055978;28;20144;-76
2022/10/30 09:32:40;;;;;;;28.20;25.50;;;21.50;99.90;;;;;;5027292;28;20061;-77
2022/10/30 09:35:09;;;;;;;28.20;25.52;;;21.40;99.90;;;;;;5026117;28;20128;-76
2022/10/30 09:37:39;;;;;;;28.45;26.02;;;21.40;99.90;;;;;;5031620;28;20069;-77
2022/10/30 09:40:18;;;;;;;28.75;26.42;;;21.40;99.90;;;;;;5032924;28;20037;-76
2022/10/30 09:42:47;;;;;;;29.08;25.85;;;21.30;99.90;;;;;;5033717;28;20398;-77
2022/10/30 09:45:24;;;;;;;28.30;25.63;;;21.20;99.90;;;;;;5044833;28;20221;-79
2022/10/30 09:48:24;;;;;;;28.55;26.25;;;21.50;99.90;;;;;;5043113;28;20045;-77
2022/10/30 09:51:24;;;;;;;28.15;25.58;;;21.60;99.90;;;;;;5042497;28;20071;-78
2022/10/30 09:53:57;;;;;;;28.35;25.95;;;21.50;99.90;;;;;;5015554;28;20123;-79
2022/10/30 09:56:39;;;;;;;28.13;25.67;;;21.60;99.90;;;;;;5034514;28;20209;-78
2022/10/30 09:59:28;;;;;;;27.88;25.27;;;21.80;99.90;;;;;;5045987;28;20532;-78
2022/10/30 10:02:02;;;;;;;30.15;27.08;;;22.10;99.90;;;;;;5032362;28;20397;-76
2022/10/30 10:04:38;;;;;;;30.30;27.13;;;22.20;99.90;;;;;;5023317;28;20041;-76
2022/10/30 10:07:30;;;;;;;29.60;26.70;;;22.30;99.90;;;;;;5026534;28;20045;-77
2022/10/30 10:10:33;;;;;;;29.40;27.10;;;22.50;99.90;;;;;;5052554;28;20606;-77
2022/10/30 10:13:27;;;;;;;31.67;28.90;;;22.50;99.90;;;;;;5035287;28;20863;-75
2022/10/30 10:16:19;;;;;;;32.17;29.00;;;22.50;99.90;;;;;;5030914;28;20087;-76
2022/10/30 10:18:59;;;;;;;31.48;29.05;;;22.70;99.90;;;;;;5002646;28;20110;-74
2022/10/30 10:21:28;;;;;;;32.25;29.45;;;22.40;99.90;;;;;;5065038;28;20045;-78
2022/10/30 10:23:57;;;;;;;30.55;27.70;;;22.50;99.90;;;;;;5031236;28;20049;-77
2022/10/30 10:26:54;;;;;;;30.15;27.65;;;22.60;99.90;;;;;;5048083;28;20506;-75
2022/10/30 10:29:27;;;;;;;29.17;26.73;;;22.80;99.90;;;;;;5036009;28;20235;-76
2022/10/30 10:32:23;;;;;;;29.58;27.02;;;23.10;99.90;;;;;;5046508;28;20049;-76
2022/10/30 10:35:17;;;;;;;30.60;28.20;;;23.10;99.90;;;;;;5062970;28;20045;-77
2022/10/30 10:38:05;;;;;;;30.60;27.60;;;23.10;99.90;;;;;;5030115;28;20040;-76
2022/10/30 10:41:05;;;;;;;30.17;27.67;;;23.10;99.90;;;;;;5039289;28;20402;-75
2022/10/30 10:44:00;;;;;;;28.73;26.05;;;23.30;99.90;;;;;;5042548;28;20045;-75
2022/10/30 10:46:37;;;;;;;29.23;26.33;;;23.10;99.90;;;;;;5026059;28;20525;-75
2022/10/30 10:49:10;;;;;;;28.88;26.20;;;22.70;99.90;;;;;;5026487;28;20661;-76
2022/10/30 10:51:41;;;;;;;28.75;26.05;;;22.50;99.90;;;;;;5023434;28;20456;-74
2022/10/30 10:54:13;;;;;;;28.40;25.98;;;22.40;99.90;;;;;;5027403;28;20040;-75
2022/10/30 10:56:45;;;;;;;27.95;25.35;;;22.30;99.90;;;;;;5010103;28;20040;-76
2022/10/30 10:59:20;;;;;;;28.85;26.30;;;22.10;99.90;;;;;;5038873;28;20076;-75
2022/10/30 11:02:01;;;;;;;29.80;27.23;;;22.00;99.90;;;;;;5025818;28;20455;-76
2022/10/30 11:04:35;;;;;;;30.55;27.83;;;21.90;99.90;;;;;;5028556;28;20045;-76
2022/10/30 11:07:12;;;;;;;30.02;27.45;;;21.90;99.90;;;;;;5024649;28;20065;-75
2022/10/30 11:09:40;;;;;;;29.95;27.35;;;22.10;99.90;;;;;;5041541;28;20104;-75
2022/10/30 11:12:07;;;;;;;30.25;27.30;;;21.70;99.90;;;;;;5023541;28;20401;-76
2022/10/30 11:14:35;;;;;;;30.98;28.23;;;21.40;99.90;;;;;;5024528;28;20045;-75
2022/10/30 11:17:23;;;;;;;32.70;27.48;;;21.40;99.90;;;;;;5041956;28;20125;-75
2022/10/30 11:19:57;;;;;;;30.85;27.83;;;21.60;99.90;;;;;;5045319;28;20394;-74
2022/10/30 11:22:38;;;;;;;29.63;27.08;;;21.60;99.90;;;;;;5027714;28;20112;-75
2022/10/30 11:25:19;;;;;;;29.55;26.80;;;21.80;99.90;;;;;;5016732;28;20056;-73
2022/10/30 11:27:48;;;;;;;29.45;26.48;;;21.80;99.90;;;;;;5021809;28;20507;-75
2022/10/30 11:30:27;;;;;;;32.35;29.63;;;21.70;99.90;;;;;;5028560;28;20052;-76
2022/10/30 11:32:58;;;;;;;29.60;26.65;;;21.80;99.90;;;;;;5028544;28;20068;-77
2022/10/30 11:35:25;;;;;;;33.25;30.08;;;21.90;99.90;;;;;;5027071;28;20135;-74
2022/10/30 11:38:20;;;;;;;30.73;28.15;;;22.00;99.90;;;;;;5042653;28;20043;-76
2022/10/30 11:40:50;;;;;;;36.73;33.00;;;21.70;99.90;;;;;;5027423;28;20060;-75
2022/10/30 11:43:22;;;;;;;29.02;26.52;;;21.60;99.90;;;;;;5042130;28;20049;-76
2022/10/30 11:45:50;;;;;;;30.90;27.80;;;21.60;99.90;;;;;;5019225;28;20037;-74
2022/10/30 11:48:38;;;;;;;30.38;27.85;;;21.70;99.90;;;;;;5041517;28;20056;-76
2022/10/30 11:51:06;;;;;;;29.23;26.60;;;21.70;99.90;;;;;;5042172;28;20612;-76
2022/10/30 11:53:40;;;;;;;31.00;28.00;;;21.60;99.90;;;;;;5031953;28;20033;-77
2022/10/30 11:56:15;;;;;;;29.92;27.55;;;21.40;99.90;;;;;;5024484;28;20287;-77
2022/10/30 11:58:50;;;;;;;30.90;27.98;;;21.20;99.90;;;;;;5044238;28;20042;-75
2022/10/30 12:01:29;;;;;;;29.83;27.15;;;21.20;99.90;;;;;;5026771;28;20128;-77
2022/10/30 12:04:20;;;;;;;32.22;29.23;;;21.00;99.90;;;;;;5028807;28;20044;-75
2022/10/30 12:06:49;;;;;;;30.40;27.77;;;21.00;99.90;;;;;;5036147;28;20052;-78
2022/10/30 12:09:20;;;;;;;30.10;27.45;;;21.00;99.90;;;;;;5042778;28;20068;-75
2022/10/30 12:11:47;;;;;;;29.10;26.48;;;20.80;99.90;;;;;;5028720;28;20124;-75
2022/10/30 12:14:23;;;;;;;30.70;28.20;;;20.90;99.90;;;;;;5044832;28;20029;-75
2022/10/30 12:16:53;;;;;;;30.08;27.38;;;21.10;99.90;;;;;;5043466;28;20045;-76
2022/10/30 12:19:22;;;;;;;32.08;28.98;;;21.00;99.90;;;;;;5042319;28;20064;-75
2022/10/30 12:21:52;;;;;;;30.15;27.58;;;21.10;99.90;;;;;;5025114;28;20119;-77
2022/10/30 12:24:42;;;;;;;28.90;26.30;;;21.20;99.90;;;;;;5045690;28;20309;-76
2022/10/30 12:27:13;;;;;;;30.83;27.70;;;21.10;99.90;;;;;;5052606;28;20043;-77
2022/10/30 12:30:03;;;;;;;29.48;26.90;;;21.10;99.90;;;;;;5045848;28;20052;-77
2022/10/30 12:33:01;;;;;;;30.55;26.85;;;21.40;99.90;;;;;;5043075;28;20068;-76
2022/10/30 12:35:53;;;;;;;31.98;28.92;;;21.60;99.90;;;;;;5041761;28;20060;-74
2022/10/30 12:38:44;;;;;;;30.17;27.30;;;21.70;99.90;;;;;;5026149;28;20342;-76
2022/10/30 12:41:57;;;;;;;30.27;27.42;;;21.50;99.90;;;;;;5041260;28;20033;-74
2022/10/30 12:44:33;;;;;;;29.58;26.60;;;21.50;99.90;;;;;;4977069;28;20174;-77
2022/10/30 12:47:10;;;;;;;30.63;27.90;;;21.40;99.90;;;;;;5035846;28;20068;-76
2022/10/30 12:49:44;;;;;;;31.48;28.42;;;21.40;99.90;;;;;;5030096;28;20044;-77
2022/10/30 12:52:27;;;;;;;30.15;27.33;;;21.70;99.90;;;;;;5026579;28;20041;-76
2022/10/30 12:54:57;;;;;;;29.95;27.45;;;21.90;99.90;;;;;;5027672;28;20049;-77
2022/10/30 12:57:27;;;;;;;29.48;26.55;;;21.80;99.90;;;;;;5042203;23;20044;-75
2022/10/30 13:00:06;;;;;;;29.63;26.88;;;21.60;99.90;;;;;;5033835;28;20072;-75
2022/10/30 13:02:48;;;;;;;30.02;27.30;;;21.50;99.90;;;;;;5014028;28;20041;-75
2022/10/30 13:05:44;;;;;;;30.80;28.02;;;21.50;99.90;;;;;;5033573;28;20045;-75